UTNU

Urgench Airport

Urgench, Uzbekistan
TAF UTNU 212303Z 2200/2224 23010G20KT 8000 SCT100 TEMPO 2200/2206 VRB05KT SCT050CB BKN100
Issued Valid From Valid To
Sep-21 @ 23:03 UTC
(5 hours ago)
Sep-22 @ 00:00 UTC
(4 hours ago)
Sep-23 @ 00:00 UTC
(in 20 hours)
to
to
TAF UTNU 212303Z 2200/2224 23010G20KT 8000 SCT100 TEMPO 2200/2206 VRB05KT SCT050CB BKN100
Issued Sep-21 @ 23:03 UTC
(5 hours ago)
Valid From Sep-22 @ 00:00 UTC
(4 hours ago)
Valid To Sep-23 @ 00:00 UTC
(in 20 hours)
-
-